Maize, KS

1:12 AM CDT on August 21, 2014 (GMT -0500)
Westridge HOA | Change Station
CLOSE
Current Station
Personal Weather Station
Location: Wichita, KS
Elevation: 1365 ft
Nearby Weather Stations

Elev 1365 ft 37.73 °N, 97.48 °W | Updated 2 minutes ago

Scattered Clouds
Scattered Clouds
80.2 °F
Feels Like 83 °F
N
3.7
Wind Variable Wind from WSW

Today
High -- | Low -- °F
--% Chance of Precip.
Yesterday
High -- | Low -- °F
Precip. -- in
6:50 AM 8:14 PM
Waning Crescent, 16% visible
Pressure 29.82 in
Visibility 10.0 miles
Clouds Scattered Clouds 25000 ft
Heat Index 83 °F
Dew Point 68 °F
Humidity 67%
Rainfall 0.00 in
Snow Depth Not available.
UV 0 out of 12
Pollen 11.40 out of 12
Air Quality Not available.
Flu Activity Not available.
METAR KICT 210553Z 17014KT 10SM SCT250 27/19 A2988 RMK AO2 SLP098 T02720189 10328 20272 403560222 53012

More Conditions Fewer Conditions

Pressure 29.82 in
Visibility 10.0 miles
Clouds Scattered Clouds 25000 ft
Heat Index 83 °F
Dew Point 68 °F
Humidity 67%
Rainfall 0.00 in
Snow Depth Not available.
UV 0 out of 12
Pollen 11.40 out of 12
Air Quality Not available.
Flu Activity Not available.
METAR KICT 210553Z 17014KT 10SM SCT250 27/19 A2988 RMK AO2 SLP098 T02720189 10328 20272 403560222 53012

More Conditions Fewer Conditions

10-Day Weather Forecast

Almanac

Astronomy

Aug. 21, 2014 Rise Set
Actual Time 6:50 AM CDT 8:14 PM CDT
Civil Twilight 6:23 AM CDT 8:42 PM CDT
Nautical Twilight 5:50 AM CDT 9:15 PM CDT
Astronomical Twilight 5:15 AM CDT 9:49 PM CDT
Moon 3:23 AM CDT 5:42 PM CDT
Length of Visible Light 14h 19m
Length of Day
13h 24m
Tomorrow will be 2m 13s shorter.
Waning Crescent, 16% of the Moon is Illuminated
Today
Waning Crescent
Aug 25
New
Sep 2
First Quarter
Sep 8
Full
Sep 15
Last Quarter

Today's Extremes

State Highs State Lows

Community

WunderPhotos

Upload Photos

1,745,858 photos uploaded!

Nearby

Snow Depth

Station Depth Elevation
No new snow has been reported.

Earthquake Activity

City Distance Mag. Time & Date
Medford, Oklahoma 67 miles 3.4 5:54 AM CDT
2014-08-16
Medford, Oklahoma 68 miles 2.5 7:09 AM CDT
2014-08-15
Langston, Oklahoma 131 miles 2.9 9:49 PM CDT
2014-08-14
Perry, Oklahoma 100 miles 2.7 6:20 PM CDT
2014-08-14
Minimum magnitude displayed is 2.5.

Coastal Water Temperatures

Place Temperature
No Stations Reporting

Nearby Weather Stations